VCP97X EGCC-LPMA
Flight info
| Callsign | VCP97X |
|---|---|
| Flight time | N/A |
| Altitude | 35000 |
| Route | KUXEM P17 BEPHE DCT OSSEP DCT ELNIF DCT ZESPE DCT KLAKI DCT ANNET DCT KORUL DCT DEMOS DCT ASMAR DCT VERAM DCT TELMU DCT PECKY DCT LIDRO |
| Aircraft | B738/M-SDE2E3FGHIRWXY/LB1 |
Departure
| Time | N/A |
|---|---|
| Airport | Manchester Airport (EGCC) |
Arrival
| Time | 2026-05-05 11:02 |
|---|---|
| Airport | Cristiano Ronaldo International Airport (LPMA) |
| Time | Latitude | Longitude | Altitude | Speed | Heading |
|---|---|---|---|---|---|
| 2026-05-05 10:50 | 33.20335 | -16.30458 | 10155 ft | 267 kts | 212° |
| 2026-05-05 10:50 | 33.18781 | -16.31670 | 10135 ft | 269 kts | 212° |
| 2026-05-05 10:50 | 33.17210 | -16.32899 | 9944 ft | 272 kts | 212° |
| 2026-05-05 10:50 | 33.15626 | -16.34126 | 9551 ft | 261 kts | 212° |
| 2026-05-05 10:51 | 33.14168 | -16.35279 | 9259 ft | 246 kts | 213° |
| 2026-05-05 10:51 | 33.12740 | -16.36419 | 8982 ft | 249 kts | 213° |
| 2026-05-05 10:51 | 33.11251 | -16.37596 | 8656 ft | 268 kts | 213° |
| 2026-05-05 10:51 | 33.09666 | -16.38826 | 8282 ft | 267 kts | 212° |
| 2026-05-05 10:52 | 33.08158 | -16.39980 | 7962 ft | 251 kts | 213° |
| 2026-05-05 10:52 | 33.06690 | -16.41062 | 7663 ft | 243 kts | 209° |
| 2026-05-05 10:52 | 33.05174 | -16.42031 | 7369 ft | 257 kts | 208° |
| 2026-05-05 10:52 | 33.03582 | -16.43086 | 7013 ft | 267 kts | 211° |
| 2026-05-05 10:53 | 33.02007 | -16.44238 | 6681 ft | 258 kts | 213° |
| 2026-05-05 10:53 | 33.00551 | -16.45353 | 6379 ft | 244 kts | 214° |
| 2026-05-05 10:53 | 32.99135 | -16.46447 | 6089 ft | 248 kts | 213° |
| 2026-05-05 10:53 | 32.97614 | -16.47609 | 5761 ft | 264 kts | 212° |
| 2026-05-05 10:54 | 32.96061 | -16.48780 | 5407 ft | 262 kts | 212° |
| 2026-05-05 10:54 | 32.94534 | -16.49929 | 5067 ft | 261 kts | 211° |
| 2026-05-05 10:54 | 32.93008 | -16.51109 | 4708 ft | 260 kts | 215° |
| 2026-05-05 10:54 | 32.91602 | -16.52465 | 4496 ft | 258 kts | 220° |
| 2026-05-05 10:55 | 32.90282 | -16.53886 | 4377 ft | 258 kts | 221° |
| 2026-05-05 10:55 | 32.88960 | -16.55334 | 4233 ft | 251 kts | 221° |
| 2026-05-05 10:55 | 32.87701 | -16.56704 | 3760 ft | 245 kts | 220° |
| 2026-05-05 10:55 | 32.86441 | -16.58060 | 3427 ft | 243 kts | 220° |
| 2026-05-05 10:56 | 32.85136 | -16.59392 | 3184 ft | 248 kts | 215° |
| 2026-05-05 10:56 | 32.83763 | -16.60595 | 2998 ft | 245 kts | 212° |
| 2026-05-05 10:56 | 32.82329 | -16.61758 | 2990 ft | 250 kts | 211° |
| 2026-05-05 10:56 | 32.80905 | -16.62911 | 2988 ft | 245 kts | 212° |
| 2026-05-05 10:57 | 32.79513 | -16.64053 | 2993 ft | 246 kts | 212° |
| 2026-05-05 10:57 | 32.78093 | -16.65227 | 2991 ft | 246 kts | 212° |
| 2026-05-05 10:57 | 32.76702 | -16.66379 | 2978 ft | 246 kts | 212° |
| 2026-05-05 10:57 | 32.75269 | -16.67564 | 2733 ft | 249 kts | 212° |
| 2026-05-05 10:58 | 32.73892 | -16.68705 | 2480 ft | 233 kts | 212° |
| 2026-05-05 10:58 | 32.72626 | -16.69759 | 2237 ft | 210 kts | 211° |
| 2026-05-05 10:58 | 32.71492 | -16.70702 | 1988 ft | 188 kts | 211° |
| 2026-05-05 10:58 | 32.70460 | -16.71554 | 1732 ft | 176 kts | 210° |
| 2026-05-05 10:59 | 32.69456 | -16.72376 | 1497 ft | 175 kts | 211° |
| 2026-05-05 10:59 | 32.68461 | -16.73194 | 1254 ft | 174 kts | 212° |
| 2026-05-05 10:59 | 32.67465 | -16.74020 | 1045 ft | 174 kts | 212° |
| 2026-05-05 10:59 | 32.66478 | -16.74848 | 986 ft | 173 kts | 213° |
| 2026-05-05 11:00 | 32.65498 | -16.75683 | 1007 ft | 173 kts | 217° |
| 2026-05-05 11:00 | 32.64727 | -16.76799 | 1035 ft | 178 kts | 242° |
| 2026-05-05 11:00 | 32.64333 | -16.78132 | 1051 ft | 167 kts | 260° |
| 2026-05-05 11:00 | 32.64392 | -16.79469 | 856 ft | 162 kts | 294° |
| 2026-05-05 11:01 | 32.65060 | -16.80447 | 925 ft | 144 kts | 336° |
| 2026-05-05 11:01 | 32.66033 | -16.80650 | 939 ft | 141 kts | 12° |
| 2026-05-05 11:01 | 32.66952 | -16.80325 | 948 ft | 136 kts | 24° |
| 2026-05-05 11:01 | 32.67778 | -16.79757 | 527 ft | 139 kts | 42° |
| 2026-05-05 11:02 | 32.68463 | -16.78975 | 346 ft | 135 kts | 41° |
| 2026-05-05 11:02 | 32.69169 | -16.78167 | 173 ft | 134 kts | 43° |
| 2026-05-05 11:02 | 32.69541 | -16.77735 | 207 ft | 0 kts | 44° |
| 2026-05-05 11:02 | 32.69592 | -16.77676 | 210 ft | 22 kts | 43° |
| 2026-05-05 11:03 | 32.69706 | -16.77543 | 216 ft | 22 kts | 45° |
| 2026-05-05 11:03 | 32.69812 | -16.77418 | 218 ft | 20 kts | 45° |
| 2026-05-05 11:03 | 32.69913 | -16.77299 | 216 ft | 19 kts | 44° |
| 2026-05-05 11:03 | 32.69944 | -16.77193 | 210 ft | 16 kts | 137° |
| 2026-05-05 11:04 | 32.69843 | -16.77182 | 201 ft | 13 kts | 200° |
| 2026-05-05 11:04 | 32.69767 | -16.77265 | 198 ft | 14 kts | 227° |
| 2026-05-05 11:04 | 32.69692 | -16.77356 | 197 ft | 14 kts | 226° |
| 2026-05-05 11:04 | 32.69614 | -16.77452 | 196 ft | 15 kts | 226° |
| 2026-05-05 11:05 | 32.69549 | -16.77532 | 195 ft | 11 kts | 226° |
| 2026-05-05 11:05 | 32.69516 | -16.77565 | 195 ft | 4 kts | 176° |
| 2026-05-05 11:05 | 32.69478 | -16.77531 | 188 ft | 3 kts | 137° |
| 2026-05-05 11:05 | 32.69465 | -16.77517 | 186 ft | 0 kts | 137° |